Time;durP1;ratioP1;P1;durP2;ratioP2;P2;SDS_P1;SDS_P2;PMS_P1;PMS_P2;Temp;Humidity;BMP_temperature;BMP_pressure;BME280_temperature;BME280_humidity;BME280_pressure;Samples;Min_cycle;Max_cycle;Signal;HPM_P1;HPM_P2
2022/01/01 00:00:50;;;;;;;11.77;5.73;;;9.70;99.90;;;;;;5046377;28;20229;-61
2022/01/01 00:03:19;;;;;;;6.67;5.00;;;9.70;99.90;;;;;;5049520;28;20201;-62
2022/01/01 00:05:46;;;;;;;4.13;3.43;;;9.70;99.90;;;;;;5046553;28;20206;-62
2022/01/01 00:08:15;;;;;;;3.20;2.90;;;9.70;99.90;;;;;;5047686;28;20271;-62
2022/01/01 00:10:43;;;;;;;2.90;2.60;;;9.60;99.90;;;;;;5044983;28;20215;-62
2022/01/01 00:13:10;;;;;;;4.30;2.60;;;9.70;99.90;;;;;;5049125;28;20205;-62
2022/01/01 00:15:37;;;;;;;3.07;2.07;;;9.60;99.90;;;;;;5047227;28;20201;-61
2022/01/01 00:18:04;;;;;;;2.07;1.87;;;9.60;99.90;;;;;;5051154;28;20208;-60
2022/01/01 00:20:33;;;;;;;1.63;1.53;;;9.70;99.90;;;;;;5051606;28;20206;-62
2022/01/01 00:23:00;;;;;;;1.67;1.57;;;9.70;99.90;;;;;;5051276;28;20205;-61
2022/01/01 00:25:27;;;;;;;2.43;2.20;;;9.70;99.90;;;;;;5051350;28;20204;-61
2022/01/01 00:27:54;;;;;;;4.90;2.83;;;9.80;99.90;;;;;;5051054;28;20694;-62
2022/01/01 00:30:23;;;;;;;3.00;2.50;;;9.70;99.90;;;;;;5051250;28;20202;-61
2022/01/01 00:32:50;;;;;;;3.90;2.20;;;9.70;99.90;;;;;;5051600;28;20192;-63
2022/01/01 00:35:17;;;;;;;3.93;2.57;;;9.60;99.90;;;;;;5050209;28;20274;-61
2022/01/01 00:37:45;;;;;;;3.33;2.60;;;9.60;99.90;;;;;;5051600;28;20682;-62
2022/01/01 00:40:13;;;;;;;3.90;2.93;;;9.60;99.90;;;;;;5051814;28;20665;-61
2022/01/01 00:42:40;;;;;;;2.47;2.27;;;9.60;99.90;;;;;;5050019;28;20216;-62
2022/01/01 00:45:08;;;;;;;2.83;2.10;;;9.50;99.90;;;;;;5051842;28;20196;-62
2022/01/01 00:47:35;;;;;;;2.90;2.43;;;9.50;99.90;;;;;;5050860;28;20198;-62
2022/01/01 00:50:02;;;;;;;2.97;1.90;;;9.50;99.90;;;;;;5051659;28;20204;-61
2022/01/01 00:52:29;;;;;;;2.20;1.93;;;9.50;99.90;;;;;;5064240;28;20231;-62
2022/01/01 00:54:57;;;;;;;2.17;1.90;;;9.50;99.90;;;;;;5091803;28;20263;-61
2022/01/01 00:57:25;;;;;;;1.57;1.40;;;9.50;99.90;;;;;;5076636;28;20628;-62
2022/01/01 00:59:52;;;;;;;2.10;1.90;;;9.50;99.90;;;;;;5082594;28;20207;-61
2022/01/01 01:02:20;;;;;;;1.53;1.43;;;9.50;99.90;;;;;;5077040;28;20212;-61
2022/01/01 01:04:47;;;;;;;2.60;2.20;;;9.50;99.90;;;;;;5084993;28;20553;-60
2022/01/01 01:07:15;;;;;;;3.00;2.67;;;9.50;99.90;;;;;;5083276;28;20605;-60
2022/01/01 01:09:42;;;;;;;2.40;2.20;;;9.60;99.90;;;;;;5091346;28;20682;-60
2022/01/01 01:12:11;;;;;;;1.90;1.80;;;9.60;99.90;;;;;;5075859;28;20208;-60
2022/01/01 01:14:41;;;;;;;2.93;2.00;;;9.60;99.90;;;;;;5091025;28;20188;-60
2022/01/01 01:17:10;;;;;;;2.53;2.30;;;9.70;99.90;;;;;;5089215;28;20203;-60
2022/01/01 01:19:37;;;;;;;2.57;2.13;;;9.70;99.90;;;;;;5081273;28;20716;-60
2022/01/01 01:22:04;;;;;;;3.07;2.43;;;9.80;99.90;;;;;;5089926;28;20218;-60
2022/01/01 01:24:33;;;;;;;3.47;2.60;;;9.80;99.90;;;;;;5079180;28;20192;-60
2022/01/01 01:27:02;;;;;;;3.07;2.73;;;9.80;99.90;;;;;;5081017;28;20567;-60
2022/01/01 01:29:32;;;;;;;2.50;2.30;;;9.90;99.90;;;;;;5070497;28;20202;-60
2022/01/01 01:32:00;;;;;;;2.27;2.07;;;9.80;99.90;;;;;;5090039;28;20551;-60
2022/01/01 01:34:27;;;;;;;1.57;1.47;;;9.90;99.90;;;;;;5091102;28;20223;-60
2022/01/01 01:36:54;;;;;;;2.50;2.20;;;9.90;99.90;;;;;;5080209;28;20200;-60
2022/01/01 01:39:21;;;;;;;3.10;2.07;;;9.90;99.90;;;;;;5088190;28;20208;-60
2022/01/01 01:41:51;;;;;;;2.03;1.90;;;9.90;99.90;;;;;;5086438;28;20653;-60
2022/01/01 01:44:26;;;;;;;2.80;1.90;;;9.90;99.90;;;;;;5079165;28;20282;-61
2022/01/01 01:46:55;;;;;;;2.03;1.90;;;9.90;99.90;;;;;;5089867;28;20200;-61
2022/01/01 01:49:22;;;;;;;1.70;1.60;;;9.90;99.90;;;;;;5086700;28;20249;-61
2022/01/01 01:51:50;;;;;;;1.40;1.30;;;9.90;99.90;;;;;;5082762;28;20228;-61
2022/01/01 01:54:17;;;;;;;1.93;1.50;;;10.00;99.90;;;;;;5087631;28;20192;-60
2022/01/01 01:56:45;;;;;;;1.97;1.87;;;10.00;99.90;;;;;;5089151;28;20199;-60
2022/01/01 01:59:13;;;;;;;1.60;1.50;;;10.00;99.90;;;;;;5089746;28;20225;-60
2022/01/01 02:01:40;;;;;;;1.30;1.20;;;10.00;99.90;;;;;;5089009;28;20241;-61
2022/01/01 02:04:09;;;;;;;1.30;1.20;;;10.00;99.90;;;;;;5090401;28;20280;-60
2022/01/01 02:06:37;;;;;;;1.00;1.00;;;10.00;99.90;;;;;;5083346;28;20196;-60
2022/01/01 02:09:04;;;;;;;1.23;1.13;;;10.00;99.90;;;;;;5061894;28;20298;-61
2022/01/01 02:11:31;;;;;;;1.40;1.30;;;10.00;99.90;;;;;;5078033;28;20284;-61
2022/01/01 02:14:09;;;;;;;1.20;1.00;;;10.00;99.90;;;;;;5081899;28;20191;-61
2022/01/01 02:16:56;;;;;;;1.50;1.40;;;10.10;99.90;;;;;;5079212;28;20196;-60
2022/01/01 02:19:25;;;;;;;2.30;1.00;;;10.10;99.90;;;;;;5077964;28;20564;-61
2022/01/01 02:21:56;;;;;;;1.30;1.20;;;10.10;99.90;;;;;;5060696;28;20676;-61
2022/01/01 02:24:24;;;;;;;1.40;1.30;;;10.10;99.90;;;;;;5082076;28;20227;-61
2022/01/01 02:26:51;;;;;;;1.47;1.37;;;10.00;99.90;;;;;;5080994;28;20193;-61
2022/01/01 02:29:18;;;;;;;1.60;1.40;;;10.10;99.90;;;;;;5080261;28;20659;-61
2022/01/01 02:31:46;;;;;;;1.43;1.33;;;10.10;99.90;;;;;;5083871;28;20193;-61
2022/01/01 02:34:13;;;;;;;1.43;1.33;;;10.10;99.90;;;;;;5056566;28;20204;-61
2022/01/01 02:36:42;;;;;;;1.90;1.70;;;10.10;99.90;;;;;;5072023;28;20639;-61
2022/01/01 02:39:15;;;;;;;1.87;1.60;;;10.10;99.90;;;;;;5074956;28;20193;-61
2022/01/01 02:41:43;;;;;;;1.20;1.20;;;10.00;99.90;;;;;;5055515;28;20752;-61
2022/01/01 02:44:11;;;;;;;1.30;1.20;;;10.00;99.90;;;;;;5079622;28;20701;-60
2022/01/01 02:46:38;;;;;;;1.03;1.03;;;10.00;99.90;;;;;;5079751;28;20196;-62
2022/01/01 02:49:06;;;;;;;1.30;1.20;;;10.00;99.90;;;;;;5071504;28;20192;-61
2022/01/01 02:51:34;;;;;;;1.20;1.00;;;10.00;99.90;;;;;;5073795;28;20263;-61
2022/01/01 02:54:01;;;;;;;0.80;0.80;;;10.00;99.90;;;;;;5079520;28;20221;-61
2022/01/01 02:56:29;;;;;;;0.80;0.80;;;10.00;99.90;;;;;;5086663;28;20200;-61
2022/01/01 02:58:57;;;;;;;0.83;0.80;;;10.00;99.90;;;;;;5086685;28;20278;-61
2022/01/01 03:01:24;;;;;;;0.90;0.90;;;10.00;99.90;;;;;;5085561;28;20674;-61
2022/01/01 03:03:51;;;;;;;1.10;1.00;;;10.00;99.90;;;;;;5067628;28;20629;-61
2022/01/01 03:06:20;;;;;;;1.63;0.90;;;10.00;99.90;;;;;;5085950;28;20212;-61
2022/01/01 03:08:48;;;;;;;0.70;0.70;;;9.90;99.90;;;;;;5076026;28;20586;-60
2022/01/01 03:11:16;;;;;;;0.60;0.60;;;9.90;99.90;;;;;;5080399;28;20211;-61
2022/01/01 03:13:45;;;;;;;0.47;0.47;;;9.90;99.90;;;;;;5078676;28;20230;-61
2022/01/01 03:16:13;;;;;;;0.50;0.50;;;9.90;99.90;;;;;;5081425;28;20287;-61
2022/01/01 03:18:41;;;;;;;0.70;0.70;;;9.90;99.90;;;;;;5078732;28;20199;-60
2022/01/01 03:21:08;;;;;;;0.60;0.60;;;9.80;99.90;;;;;;5080561;28;20249;-61
2022/01/01 03:23:35;;;;;;;1.43;0.70;;;9.80;99.90;;;;;;5084915;28;20220;-61
2022/01/01 03:26:03;;;;;;;0.60;0.60;;;9.80;99.90;;;;;;5068855;28;20671;-61
2022/01/01 03:28:30;;;;;;;0.70;0.60;;;9.80;99.90;;;;;;5080634;28;20204;-61
2022/01/01 03:30:59;;;;;;;0.60;0.60;;;9.80;99.90;;;;;;5091862;28;20263;-61
2022/01/01 03:33:26;;;;;;;0.43;0.43;;;9.80;99.90;;;;;;5064605;28;20219;-61
2022/01/01 03:35:53;;;;;;;0.40;0.40;;;9.80;99.90;;;;;;5092812;28;20196;-61
2022/01/01 03:38:20;;;;;;;0.50;0.50;;;9.80;99.90;;;;;;5087253;28;20199;-60
2022/01/01 03:40:47;;;;;;;2.23;0.40;;;9.80;99.90;;;;;;5069831;28;20203;-61
2022/01/01 03:43:14;;;;;;;0.40;0.40;;;9.80;99.90;;;;;;5077859;28;20220;-61
2022/01/01 03:45:41;;;;;;;0.33;0.33;;;9.80;99.90;;;;;;5062574;28;20212;-62
2022/01/01 03:48:10;;;;;;;0.47;0.47;;;9.80;99.90;;;;;;5088731;28;20740;-62
2022/01/01 03:50:37;;;;;;;0.50;0.50;;;9.80;99.90;;;;;;5089710;28;20278;-61
2022/01/01 03:53:04;;;;;;;0.47;0.47;;;9.80;99.90;;;;;;5086358;28;20323;-61
2022/01/01 03:55:31;;;;;;;0.40;0.40;;;9.80;99.90;;;;;;5091228;28;20194;-61
2022/01/01 03:57:58;;;;;;;0.50;0.50;;;9.80;99.90;;;;;;5084260;28;20200;-61
2022/01/01 04:00:26;;;;;;;1.03;0.50;;;9.80;99.90;;;;;;5072941;28;20302;-61
2022/01/01 04:02:53;;;;;;;0.40;0.40;;;9.80;99.90;;;;;;5079851;28;20667;-61
2022/01/01 04:05:21;;;;;;;0.50;0.50;;;9.80;99.90;;;;;;5066415;28;20214;-60
2022/01/01 04:07:48;;;;;;;0.50;0.50;;;9.80;99.90;;;;;;5086062;28;20199;-62
2022/01/01 04:10:15;;;;;;;0.40;0.40;;;9.80;99.90;;;;;;5063945;28;20750;-60
2022/01/01 04:12:42;;;;;;;0.57;0.50;;;9.80;99.90;;;;;;5059932;28;20306;-60
2022/01/01 04:15:10;;;;;;;0.50;0.50;;;9.70;99.90;;;;;;5083720;28;20199;-61
2022/01/01 04:17:38;;;;;;;0.50;0.50;;;9.70;99.90;;;;;;5078218;28;20233;-61
2022/01/01 04:20:09;;;;;;;0.87;0.67;;;9.70;99.90;;;;;;5071634;28;20201;-61
2022/01/01 04:22:38;;;;;;;0.60;0.60;;;9.70;99.90;;;;;;5078280;28;20560;-61
2022/01/01 04:25:05;;;;;;;0.93;0.70;;;9.70;99.90;;;;;;5082446;28;20241;-61
2022/01/01 04:27:33;;;;;;;1.00;0.60;;;9.70;99.90;;;;;;5085113;28;20196;-62
2022/01/01 04:30:00;;;;;;;0.60;0.60;;;9.70;99.90;;;;;;5069192;28;20206;-62
2022/01/01 04:32:27;;;;;;;1.70;0.93;;;9.70;99.90;;;;;;5091519;28;20193;-61
2022/01/01 04:34:54;;;;;;;0.80;0.60;;;9.70;99.90;;;;;;5079294;28;20186;-61
2022/01/01 04:37:21;;;;;;;0.80;0.80;;;9.60;99.90;;;;;;5088964;28;20215;-62
2022/01/01 04:39:55;;;;;;;0.60;0.60;;;9.70;99.90;;;;;;5091550;28;20202;-61
2022/01/01 04:42:22;;;;;;;0.70;0.70;;;9.60;99.90;;;;;;5080686;28;20218;-59
2022/01/01 04:44:49;;;;;;;0.53;0.53;;;9.70;99.90;;;;;;5070791;28;20652;-61
2022/01/01 04:47:16;;;;;;;0.40;0.40;;;9.70;99.90;;;;;;5090643;28;20198;-61
2022/01/01 04:49:43;;;;;;;0.50;0.50;;;9.70;99.90;;;;;;5072972;28;20203;-62
2022/01/01 04:52:10;;;;;;;0.60;0.60;;;9.70;99.90;;;;;;5087823;28;20317;-62
2022/01/01 04:54:41;;;;;;;0.60;0.60;;;9.70;99.90;;;;;;5091455;28;20214;-62
2022/01/01 04:57:09;;;;;;;0.53;0.53;;;9.80;99.90;;;;;;5089866;28;20191;-61
2022/01/01 04:59:37;;;;;;;0.60;0.60;;;9.80;99.90;;;;;;5088387;28;20776;-60
2022/01/01 05:02:04;;;;;;;0.43;0.43;;;9.80;99.90;;;;;;5084200;28;20689;-61
2022/01/01 05:04:32;;;;;;;0.60;0.60;;;9.80;99.90;;;;;;5088665;28;20220;-62
2022/01/01 05:06:59;;;;;;;0.90;0.87;;;9.80;99.90;;;;;;5087864;28;20231;-61
2022/01/01 05:09:27;;;;;;;0.53;0.53;;;9.80;99.90;;;;;;5085835;28;20252;-61
2022/01/01 05:11:55;;;;;;;0.80;0.50;;;9.80;99.90;;;;;;5080191;28;20197;-62
2022/01/01 05:14:24;;;;;;;2.50;0.70;;;9.80;99.90;;;;;;5086340;28;20299;-62
2022/01/01 05:16:52;;;;;;;0.50;0.50;;;9.80;99.90;;;;;;5085856;28;20195;-62
2022/01/01 05:19:19;;;;;;;1.20;0.60;;;9.80;99.90;;;;;;5080963;28;20226;-62
2022/01/01 05:21:47;;;;;;;0.90;0.70;;;9.80;99.90;;;;;;5079467;28;20241;-62
2022/01/01 05:24:18;;;;;;;0.77;0.77;;;9.80;99.90;;;;;;5077559;28;20242;-62
2022/01/01 05:26:45;;;;;;;1.03;1.00;;;9.80;99.90;;;;;;5086197;28;20222;-62
2022/01/01 05:29:13;;;;;;;0.70;0.70;;;9.70;99.90;;;;;;5065465;28;20208;-62
2022/01/01 05:31:41;;;;;;;0.83;0.80;;;9.70;99.90;;;;;;5088549;28;20281;-62
2022/01/01 05:34:08;;;;;;;0.70;0.70;;;9.70;99.90;;;;;;5081520;28;20333;-62
2022/01/01 05:36:35;;;;;;;0.70;0.70;;;9.70;99.90;;;;;;5085387;28;20215;-62
2022/01/01 05:39:02;;;;;;;0.60;0.60;;;9.70;99.90;;;;;;5089790;28;20202;-62
2022/01/01 05:41:29;;;;;;;0.97;0.63;;;9.70;99.90;;;;;;5085543;28;20234;-60
2022/01/01 05:43:57;;;;;;;0.70;0.70;;;9.70;99.90;;;;;;5088589;28;20211;-60
2022/01/01 05:46:24;;;;;;;0.60;0.60;;;9.70;99.90;;;;;;5084898;28;20200;-62
2022/01/01 05:48:52;;;;;;;0.80;0.80;;;9.80;99.90;;;;;;5079913;28;20560;-61
2022/01/01 05:51:19;;;;;;;0.90;0.90;;;9.80;99.90;;;;;;5084951;28;20199;-60
2022/01/01 05:53:46;;;;;;;0.60;0.60;;;9.80;99.90;;;;;;5079723;28;20253;-60
2022/01/01 05:56:14;;;;;;;0.70;0.70;;;9.80;99.90;;;;;;5076081;28;20200;-61
2022/01/01 05:58:41;;;;;;;0.80;0.80;;;9.80;99.90;;;;;;5080312;28;20245;-61
2022/01/01 06:01:08;;;;;;;0.50;0.50;;;9.80;99.90;;;;;;5064815;28;20200;-61
2022/01/01 06:03:35;;;;;;;0.87;0.87;;;9.90;99.90;;;;;;5078974;28;20212;-61
2022/01/01 06:06:04;;;;;;;1.20;1.20;;;9.90;99.90;;;;;;5062198;28;20245;-61
2022/01/01 06:08:31;;;;;;;1.43;1.33;;;9.90;99.90;;;;;;5067311;28;20564;-61
2022/01/01 06:10:58;;;;;;;1.30;1.20;;;9.90;99.90;;;;;;5078853;28;20534;-60
2022/01/01 06:13:25;;;;;;;1.07;1.07;;;9.80;99.90;;;;;;5084042;28;20273;-61
2022/01/01 06:15:52;;;;;;;1.40;1.30;;;9.80;99.90;;;;;;5064183;28;20212;-61
2022/01/01 06:18:19;;;;;;;2.80;1.23;;;9.80;99.90;;;;;;5065209;28;20200;-61
2022/01/01 06:20:46;;;;;;;2.00;1.47;;;9.80;99.90;;;;;;5073512;28;20917;-61
2022/01/01 06:23:15;;;;;;;1.23;1.13;;;9.70;99.90;;;;;;5082725;28;20194;-61
2022/01/01 06:25:42;;;;;;;2.03;1.37;;;9.70;99.90;;;;;;5086474;28;20187;-61
2022/01/01 06:28:09;;;;;;;1.33;1.23;;;9.70;99.90;;;;;;5085332;28;20196;-61
2022/01/01 06:30:36;;;;;;;1.13;1.10;;;9.70;99.90;;;;;;5091982;28;20261;-61
2022/01/01 06:33:11;;;;;;;0.83;0.83;;;9.70;99.90;;;;;;5091886;28;20277;-61
2022/01/01 06:35:38;;;;;;;1.20;1.10;;;9.70;99.90;;;;;;5089716;28;20248;-61
2022/01/01 06:38:05;;;;;;;1.40;1.30;;;9.80;99.90;;;;;;5086232;28;20742;-62
2022/01/01 06:40:34;;;;;;;1.60;1.50;;;9.70;99.90;;;;;;5092116;28;20656;-60
2022/01/01 06:43:01;;;;;;;1.57;1.30;;;9.80;99.90;;;;;;5092794;28;20210;-61
2022/01/01 06:45:28;;;;;;;1.10;1.00;;;9.70;99.90;;;;;;5093495;28;20243;-60
2022/01/01 06:47:55;;;;;;;0.70;0.70;;;9.70;99.90;;;;;;5086752;28;20573;-61
2022/01/01 06:50:22;;;;;;;2.13;1.20;;;9.80;99.90;;;;;;5093091;28;20232;-61
2022/01/01 06:52:49;;;;;;;2.50;1.40;;;9.80;99.90;;;;;;5087045;28;20282;-62
2022/01/01 06:55:16;;;;;;;1.03;0.93;;;9.80;99.90;;;;;;5089343;28;20652;-61
2022/01/01 06:57:46;;;;;;;1.00;0.90;;;9.80;99.90;;;;;;5090611;28;20195;-62
2022/01/01 07:00:15;;;;;;;0.80;0.80;;;9.80;99.90;;;;;;5093721;28;20191;-61
2022/01/01 07:02:43;;;;;;;0.87;0.80;;;9.80;99.90;;;;;;5086566;28;20219;-61
2022/01/01 07:05:12;;;;;;;0.80;0.80;;;9.80;99.90;;;;;;5079844;28;20232;-62
2022/01/01 07:07:39;;;;;;;0.90;0.90;;;9.80;99.90;;;;;;5082905;28;20685;-61
2022/01/01 07:10:10;;;;;;;2.80;1.00;;;9.80;99.90;;;;;;5077212;28;20598;-61
2022/01/01 07:12:38;;;;;;;1.60;1.17;;;9.90;99.90;;;;;;5074261;28;20200;-62
2022/01/01 07:15:09;;;;;;;1.53;0.97;;;9.90;99.90;;;;;;5077058;28;20279;-62
2022/01/01 07:17:36;;;;;;;0.80;0.80;;;9.90;99.90;;;;;;5072890;28;20280;-62
2022/01/01 07:20:03;;;;;;;2.80;1.80;;;9.90;99.90;;;;;;5069079;28;20194;-61
2022/01/01 07:22:30;;;;;;;5.37;1.43;;;9.90;99.90;;;;;;5073263;28;20337;-61
2022/01/01 07:24:57;;;;;;;4.53;1.70;;;9.90;99.90;;;;;;5087488;28;20625;-61
2022/01/01 07:27:25;;;;;;;2.00;1.33;;;9.90;99.90;;;;;;5086645;28;20647;-61
2022/01/01 07:29:52;;;;;;;1.13;1.03;;;9.90;99.90;;;;;;5062230;28;20199;-62
2022/01/01 07:32:20;;;;;;;0.90;0.87;;;9.90;99.90;;;;;;5092326;28;20206;-61
2022/01/01 07:34:47;;;;;;;2.00;1.23;;;9.90;99.90;;;;;;5074831;28;20659;-61
2022/01/01 07:37:14;;;;;;;2.27;1.03;;;9.90;99.90;;;;;;5091308;28;20563;-62
2022/01/01 07:39:41;;;;;;;2.90;1.33;;;10.00;99.90;;;;;;5092069;28;20212;-62
2022/01/01 07:42:09;;;;;;;4.63;1.90;;;10.00;99.90;;;;;;5080581;28;20203;-62
2022/01/01 07:44:36;;;;;;;1.73;1.50;;;10.00;99.90;;;;;;5090645;28;20208;-61
2022/01/01 07:47:03;;;;;;;2.43;1.30;;;10.00;99.90;;;;;;5073480;28;20204;-61
2022/01/01 07:49:32;;;;;;;1.00;1.00;;;10.00;99.90;;;;;;5076204;28;20191;-61
2022/01/01 07:51:59;;;;;;;0.93;0.93;;;10.00;99.90;;;;;;5081808;28;20261;-61
2022/01/01 07:54:26;;;;;;;1.27;1.00;;;10.00;99.90;;;;;;5090295;28;20198;-61
2022/01/01 07:56:53;;;;;;;1.00;1.00;;;10.00;99.90;;;;;;5089080;28;20200;-61
2022/01/01 07:59:20;;;;;;;0.90;0.73;;;10.00;99.90;;;;;;5073717;28;21484;-61
2022/01/01 08:01:47;;;;;;;0.80;0.80;;;10.00;99.90;;;;;;5088463;28;20193;-61
2022/01/01 08:04:15;;;;;;;2.27;1.00;;;10.00;99.90;;;;;;5092122;28;20207;-61
2022/01/01 08:06:43;;;;;;;0.80;0.77;;;10.10;99.90;;;;;;5091552;28;20202;-61
2022/01/01 08:09:10;;;;;;;2.73;1.23;;;10.10;99.90;;;;;;5082437;28;20188;-60
2022/01/01 08:11:37;;;;;;;2.80;1.17;;;10.10;99.90;;;;;;5079617;28;20200;-61
2022/01/01 08:14:04;;;;;;;2.27;1.50;;;10.10;99.90;;;;;;5090342;28;20271;-61
2022/01/01 08:16:31;;;;;;;1.57;1.23;;;10.10;99.90;;;;;;5077956;28;20656;-61
2022/01/01 08:18:58;;;;;;;1.20;1.00;;;10.10;99.90;;;;;;5057137;28;20200;-61
2022/01/01 08:21:25;;;;;;;2.97;1.33;;;10.10;99.90;;;;;;5076018;28;20195;-61
2022/01/01 08:23:54;;;;;;;1.27;1.17;;;10.10;99.90;;;;;;5077047;28;20195;-61
2022/01/01 08:26:21;;;;;;;2.90;1.30;;;10.00;99.90;;;;;;5088202;28;20195;-61
2022/01/01 08:28:48;;;;;;;2.50;1.30;;;10.00;99.90;;;;;;5079864;28;20191;-61
2022/01/01 08:31:15;;;;;;;1.83;1.67;;;10.00;99.90;;;;;;5091485;28;20202;-60
2022/01/01 08:33:42;;;;;;;1.40;1.03;;;10.00;99.90;;;;;;5078881;28;20199;-60
2022/01/01 08:36:11;;;;;;;1.07;0.97;;;10.00;99.90;;;;;;5071940;28;20262;-60
2022/01/01 08:38:38;;;;;;;1.07;1.03;;;10.00;99.90;;;;;;5073688;28;20192;-60
2022/01/01 08:41:07;;;;;;;1.33;0.90;;;10.00;99.90;;;;;;5088643;28;20207;-61
2022/01/01 08:43:34;;;;;;;1.80;1.43;;;10.00;99.90;;;;;;5073402;28;20287;-61
2022/01/01 08:46:01;;;;;;;2.67;1.33;;;10.00;99.90;;;;;;5084210;28;20261;-61
2022/01/01 08:48:28;;;;;;;4.10;1.23;;;10.00;99.90;;;;;;5084619;28;20201;-60
2022/01/01 08:50:55;;;;;;;1.93;1.20;;;10.00;99.90;;;;;;5079937;28;20207;-61
2022/01/01 08:53:22;;;;;;;2.73;1.43;;;10.00;99.90;;;;;;5086773;28;20223;-60
2022/01/01 08:55:49;;;;;;;3.87;1.60;;;10.00;99.90;;;;;;5083323;28;20191;-61
2022/01/01 08:58:18;;;;;;;1.73;1.30;;;10.00;99.90;;;;;;5065974;28;20203;-62
2022/01/01 09:00:46;;;;;;;3.17;1.47;;;10.00;99.90;;;;;;5064250;28;20209;-61
2022/01/01 09:03:13;;;;;;;2.70;1.10;;;10.00;99.90;;;;;;5084566;28;20190;-61
2022/01/01 09:05:40;;;;;;;3.57;1.60;;;10.00;99.90;;;;;;5082568;28;20209;-61
2022/01/01 09:08:07;;;;;;;1.73;0.90;;;10.00;99.90;;;;;;5084763;28;20191;-61
2022/01/01 09:10:34;;;;;;;2.10;1.20;;;10.00;99.90;;;;;;5079350;28;20192;-61
2022/01/01 09:13:01;;;;;;;1.00;0.90;;;10.00;99.90;;;;;;5079846;28;20204;-61
2022/01/01 09:15:30;;;;;;;3.07;1.30;;;10.00;99.90;;;;;;5083238;28;20315;-62
2022/01/01 09:17:57;;;;;;;1.50;1.23;;;10.00;99.90;;;;;;5059223;28;20574;-61
2022/01/01 09:20:24;;;;;;;2.10;1.00;;;10.00;99.90;;;;;;5080615;28;20195;-61
2022/01/01 09:22:51;;;;;;;1.10;0.90;;;10.10;99.90;;;;;;5077256;28;20197;-62
2022/01/01 09:25:18;;;;;;;0.80;0.80;;;10.10;99.90;;;;;;5081241;28;20224;-61
2022/01/01 09:27:45;;;;;;;1.83;1.20;;;10.10;99.90;;;;;;5090363;28;20206;-61
2022/01/01 09:30:13;;;;;;;3.50;1.07;;;10.10;99.90;;;;;;5084704;28;20657;-61
2022/01/01 09:32:41;;;;;;;3.23;1.40;;;10.10;99.90;;;;;;5079287;28;20200;-62
2022/01/01 09:35:09;;;;;;;1.67;1.10;;;10.10;99.90;;;;;;5071322;28;20279;-61
2022/01/01 09:37:36;;;;;;;2.43;1.27;;;10.10;99.90;;;;;;5071990;28;20574;-61
2022/01/01 09:40:05;;;;;;;2.60;1.50;;;10.10;99.90;;;;;;5089625;28;20239;-61
2022/01/01 09:42:32;;;;;;;3.17;1.53;;;10.00;99.90;;;;;;5089792;28;20190;-62
2022/01/01 09:45:00;;;;;;;3.50;1.40;;;10.00;99.90;;;;;;5088925;28;20269;-62
2022/01/01 09:47:27;;;;;;;3.43;1.20;;;10.00;99.90;;;;;;5086656;28;20287;-62
2022/01/01 09:49:56;;;;;;;2.90;1.80;;;10.00;99.90;;;;;;5086253;28;20221;-61
2022/01/01 09:52:23;;;;;;;2.53;1.40;;;10.00;99.90;;;;;;5078276;28;20596;-61
2022/01/01 09:54:50;;;;;;;1.60;1.20;;;10.00;99.90;;;;;;5088551;28;20192;-61
2022/01/01 09:57:17;;;;;;;2.10;1.27;;;10.00;99.90;;;;;;5087096;28;20193;-61
2022/01/01 09:59:45;;;;;;;1.30;1.20;;;10.00;99.90;;;;;;5089238;28;20599;-61
2022/01/01 10:02:12;;;;;;;2.70;1.57;;;10.00;99.90;;;;;;5094081;28;20215;-61
2022/01/01 10:04:44;;;;;;;3.67;1.30;;;10.00;99.90;;;;;;5075125;28;20615;-62
2022/01/01 10:07:13;;;;;;;1.67;1.57;;;10.00;99.90;;;;;;5090382;28;20201;-62
2022/01/01 10:09:41;;;;;;;1.70;1.50;;;10.00;99.90;;;;;;5094538;28;20196;-62
2022/01/01 10:12:10;;;;;;;4.23;1.00;;;10.00;99.90;;;;;;5086127;28;20205;-62
2022/01/01 10:14:38;;;;;;;1.20;1.10;;;10.00;99.90;;;;;;5074007;28;20603;-63
2022/01/01 10:17:15;;;;;;;3.07;1.40;;;10.00;99.90;;;;;;5075470;28;20206;-60
2022/01/01 10:19:43;;;;;;;1.57;1.10;;;10.00;99.90;;;;;;5090358;28;20191;-61
2022/01/01 10:22:13;;;;;;;2.00;1.40;;;10.00;99.90;;;;;;5093603;28;20229;-61
2022/01/01 10:27:43;;;;;;;2.30;1.27;;;10.00;99.90;;;;;;5073178;28;20610;-60
2022/01/01 10:30:17;;;;;;;2.10;1.00;;;10.00;99.90;;;;;;5093213;28;20556;-60
2022/01/01 10:33:06;;;;;;;1.20;0.90;;;10.00;99.90;;;;;;5075711;28;20227;-59
2022/01/01 10:35:43;;;;;;;1.57;1.13;;;10.00;99.90;;;;;;5093950;28;20194;-61
2022/01/01 10:38:15;;;;;;;0.90;0.90;;;10.00;99.90;;;;;;5071679;28;20206;-61
2022/01/01 10:40:45;;;;;;;2.50;1.00;;;9.90;99.90;;;;;;5084836;28;20201;-61
2022/01/01 10:43:14;;;;;;;1.53;1.27;;;9.90;99.90;;;;;;5089326;28;21470;-61
2022/01/01 10:45:45;;;;;;;1.00;0.90;;;10.00;99.90;;;;;;5086406;28;20296;-61
2022/01/01 10:48:23;;;;;;;3.20;1.40;;;10.00;99.90;;;;;;5075980;28;20207;-60
2022/01/01 10:50:52;;;;;;;1.73;1.33;;;10.00;99.90;;;;;;5093222;28;20245;-60
2022/01/01 10:53:23;;;;;;;3.23;1.83;;;10.00;99.90;;;;;;5078932;28;20279;-62
2022/01/01 10:55:53;;;;;;;1.70;1.40;;;10.00;99.90;;;;;;5067570;28;20300;-61
2022/01/01 10:58:22;;;;;;;0.93;0.93;;;10.00;99.90;;;;;;5088961;28;20197;-62
2022/01/01 11:00:51;;;;;;;1.77;1.20;;;9.90;99.90;;;;;;5081848;28;20230;-62
2022/01/01 11:03:20;;;;;;;2.07;1.17;;;9.90;99.90;;;;;;5068005;28;20206;-61
2022/01/01 11:05:51;;;;;;;4.90;2.20;;;9.90;99.90;;;;;;5082830;28;20215;-61
2022/01/01 11:08:19;;;;;;;3.00;1.40;;;9.90;99.90;;;;;;5085822;28;20663;-61
2022/01/01 11:10:46;;;;;;;2.60;1.60;;;9.90;99.90;;;;;;5084699;28;20746;-61
2022/01/01 11:13:14;;;;;;;2.83;1.70;;;9.80;99.90;;;;;;5079375;28;20192;-61
2022/01/01 11:15:41;;;;;;;2.30;1.40;;;9.80;99.90;;;;;;5080226;28;20194;-61
2022/01/01 11:18:09;;;;;;;1.20;1.10;;;9.80;99.90;;;;;;5084426;28;20226;-61
2022/01/01 11:20:38;;;;;;;2.20;1.23;;;9.80;99.90;;;;;;5091168;28;20219;-61
2022/01/01 11:23:08;;;;;;;1.43;1.17;;;9.80;99.90;;;;;;5083141;28;20536;-62
2022/01/01 11:25:37;;;;;;;2.63;1.00;;;9.80;99.90;;;;;;5082044;28;20701;-63
2022/01/01 11:28:08;;;;;;;1.30;1.20;;;9.80;99.90;;;;;;5077479;28;20215;-61
2022/01/01 11:30:38;;;;;;;1.37;1.00;;;9.90;99.90;;;;;;5079336;28;20207;-61
2022/01/01 11:33:09;;;;;;;6.03;1.40;;;9.90;99.90;;;;;;5093072;28;20189;-62
2022/01/01 11:35:39;;;;;;;1.93;1.00;;;9.90;99.90;;;;;;5093049;28;20194;-62
2022/01/01 11:38:08;;;;;;;0.77;0.77;;;9.90;99.90;;;;;;5092519;28;20470;-61
2022/01/01 11:40:44;;;;;;;4.47;1.60;;;9.90;99.90;;;;;;5079002;28;20196;-61
2022/01/01 11:43:33;;;;;;;1.27;1.07;;;9.90;99.90;;;;;;5091821;28;20207;-62
2022/01/01 11:46:05;;;;;;;2.03;1.40;;;9.90;99.90;;;;;;5092135;28;20661;-61
2022/01/01 11:48:36;;;;;;;2.57;1.07;;;9.90;99.90;;;;;;5090742;28;20240;-62
2022/01/01 11:51:29;;;;;;;1.77;1.40;;;9.90;99.90;;;;;;5084223;28;20243;-61
2022/01/01 11:54:26;;;;;;;2.10;0.80;;;9.90;99.90;;;;;;5081101;28;20661;-61
2022/01/01 11:57:09;;;;;;;1.37;0.70;;;9.90;99.90;;;;;;5077330;28;20195;-62
2022/01/01 11:59:51;;;;;;;1.00;0.73;;;9.90;99.90;;;;;;5069000;28;20215;-60
2022/01/01 12:02:37;;;;;;;0.97;0.83;;;9.90;99.90;;;;;;5088861;28;20244;-62
2022/01/01 12:05:22;;;;;;;0.80;0.80;;;9.80;99.90;;;;;;5079523;28;21142;-62
2022/01/01 12:07:55;;;;;;;0.70;0.70;;;9.80;99.90;;;;;;5082354;28;20202;-61
2022/01/01 12:10:26;;;;;;;0.77;0.67;;;9.80;99.90;;;;;;5088993;28;20192;-61
2022/01/01 12:12:55;;;;;;;1.37;0.70;;;9.80;99.90;;;;;;5082667;28;20659;-61
2022/01/01 12:15:38;;;;;;;1.63;0.83;;;9.80;99.90;;;;;;5068484;28;20212;-61
2022/01/01 12:18:08;;;;;;;1.10;0.97;;;9.80;99.90;;;;;;5076580;28;20218;-62
2022/01/01 12:20:37;;;;;;;0.90;0.90;;;9.80;99.90;;;;;;5075675;28;20205;-61
2022/01/01 12:23:07;;;;;;;1.50;1.00;;;9.70;99.90;;;;;;5063506;28;20208;-61
2022/01/01 12:25:36;;;;;;;0.80;0.50;;;9.70;99.90;;;;;;5089974;28;20672;-61
2022/01/01 12:28:06;;;;;;;0.77;0.63;;;9.70;99.90;;;;;;5081276;28;20282;-61
2022/01/01 12:30:37;;;;;;;1.10;1.00;;;9.70;99.90;;;;;;5078461;28;20196;-61
2022/01/01 12:33:05;;;;;;;0.90;0.73;;;9.70;99.90;;;;;;5091922;28;20656;-61
2022/01/01 12:35:46;;;;;;;0.93;0.90;;;9.70;99.90;;;;;;5092056;28;20650;-61
2022/01/01 12:38:15;;;;;;;1.07;0.90;;;9.70;99.90;;;;;;5091608;28;20194;-61
2022/01/01 12:41:03;;;;;;;1.10;1.10;;;9.70;99.90;;;;;;5091060;28;20245;-61
2022/01/01 12:43:32;;;;;;;1.00;0.90;;;9.70;99.90;;;;;;5088032;28;20726;-61
2022/01/01 12:46:01;;;;;;;1.13;1.03;;;9.70;99.90;;;;;;5080291;28;20227;-61
2022/01/01 12:48:32;;;;;;;1.53;1.10;;;9.60;99.90;;;;;;5089811;28;20211;-61
2022/01/01 12:51:04;;;;;;;1.30;0.90;;;9.60;99.90;;;;;;5084822;28;20353;-61
2022/01/01 12:53:33;;;;;;;0.97;0.90;;;9.60;99.90;;;;;;5080161;28;20196;-61
2022/01/01 12:56:06;;;;;;;0.90;0.90;;;9.50;99.90;;;;;;5081138;28;20245;-61
2022/01/01 12:58:35;;;;;;;0.87;0.83;;;9.40;99.90;;;;;;5090350;28;20603;-61
2022/01/01 13:01:11;;;;;;;0.90;0.73;;;9.30;99.90;;;;;;5083784;28;20199;-60
2022/01/01 13:03:38;;;;;;;1.10;0.83;;;9.30;99.90;;;;;;5091189;28;20198;-61